sensor_id;sensor_type;location;lat;lon;timestamp;pressure;altitude;pressure_sealevel;temperature;humidity
42727;BME280;28372;56.832;60.658;2022-11-20T00:01:26;98526.63;;;-6.35;49.15
42727;BME280;28372;56.832;60.658;2022-11-20T00:03:56;98516.91;;;-6.35;48.83
42727;BME280;28372;56.832;60.658;2022-11-20T00:06:26;98512.13;;;-6.38;49.46
42727;BME280;28372;56.832;60.658;2022-11-20T00:08:55;98512.69;;;-6.36;49.16
42727;BME280;28372;56.832;60.658;2022-11-20T00:11:24;98516.91;;;-6.35;49.54
42727;BME280;28372;56.832;60.658;2022-11-20T00:13:55;98515.84;;;-6.34;49.84
42727;BME280;28372;56.832;60.658;2022-11-20T00:16:25;98513.22;;;-6.34;49.74
42727;BME280;28372;56.832;60.658;2022-11-20T00:18:54;98519.53;;;-6.35;49.40
42727;BME280;28372;56.832;60.658;2022-11-20T00:21:23;98508.44;;;-6.37;49.51
42727;BME280;28372;56.832;60.658;2022-11-20T00:23:54;98504.00;;;-6.37;50.27
42727;BME280;28372;56.832;60.658;2022-11-20T00:26:23;98518.72;;;-6.35;49.76
42727;BME280;28372;56.832;60.658;2022-11-20T00:28:54;98503.13;;;-6.42;50.14
42727;BME280;28372;56.832;60.658;2022-11-20T00:31:22;98515.63;;;-6.32;49.66
42727;BME280;28372;56.832;60.658;2022-11-20T00:33:50;98501.28;;;-6.42;49.67
42727;BME280;28372;56.832;60.658;2022-11-20T00:36:22;98513.22;;;-6.34;49.48
42727;BME280;28372;56.832;60.658;2022-11-20T00:38:55;98510.38;;;-6.32;50.21
42727;BME280;28372;56.832;60.658;2022-11-20T00:41:23;98510.59;;;-6.34;49.17
42727;BME280;28372;56.832;60.658;2022-11-20T00:43:52;98513.00;;;-6.32;49.05
42727;BME280;28372;56.832;60.658;2022-11-20T00:46:22;98508.03;;;-6.29;49.08
42727;BME280;28372;56.832;60.658;2022-11-20T00:48:51;98499.59;;;-6.31;49.33
42727;BME280;28372;56.832;60.658;2022-11-20T00:51:20;98496.16;;;-6.31;49.90
42727;BME280;28372;56.832;60.658;2022-11-20T00:53:48;98510.38;;;-6.32;49.78
42727;BME280;28372;56.832;60.658;2022-11-20T00:56:18;98508.28;;;-6.30;50.12
42727;BME280;28372;56.832;60.658;2022-11-20T00:58:47;98489.22;;;-6.38;49.71
42727;BME280;28372;56.832;60.658;2022-11-20T01:03:46;98498.06;;;-6.27;50.55
42727;BME280;28372;56.832;60.658;2022-11-20T01:08:43;98498.31;;;-6.28;50.06
42727;BME280;28372;56.832;60.658;2022-11-20T01:11:14;98491.19;;;-6.28;49.32
42727;BME280;28372;56.832;60.658;2022-11-20T01:13:43;98479.31;;;-6.30;49.58
42727;BME280;28372;56.832;60.658;2022-11-20T01:16:17;98479.69;;;-6.22;49.90
42727;BME280;28372;56.832;60.658;2022-11-20T01:18:46;98485.16;;;-6.28;49.55
42727;BME280;28372;56.832;60.658;2022-11-20T01:21:20;98490.94;;;-6.26;49.55
42727;BME280;28372;56.832;60.658;2022-11-20T01:23:49;98487.78;;;-6.28;49.39
42727;BME280;28372;56.832;60.658;2022-11-20T01:26:19;98479.38;;;-6.25;48.76
42727;BME280;28372;56.832;60.658;2022-11-20T01:28:47;98494.09;;;-6.29;48.62
42727;BME280;28372;56.832;60.658;2022-11-20T01:31:18;98482.53;;;-6.28;48.09
42727;BME280;28372;56.832;60.658;2022-11-20T01:33:47;98476.75;;;-6.25;48.38
42727;BME280;28372;56.832;60.658;2022-11-20T01:36:16;98470.94;;;-6.27;49.13
42727;BME280;28372;56.832;60.658;2022-11-20T01:38:45;98477.25;;;-6.28;48.57
42727;BME280;28372;56.832;60.658;2022-11-20T01:41:14;98466.16;;;-6.30;48.17
42727;BME280;28372;56.832;60.658;2022-11-20T01:44:03;98470.69;;;-6.26;48.27
42727;BME280;28372;56.832;60.658;2022-11-20T01:46:38;98463.59;;;-6.25;49.42
42727;BME280;28372;56.832;60.658;2022-11-20T01:49:34;98461.22;;;-6.27;49.13
42727;BME280;28372;56.832;60.658;2022-11-20T01:52:08;98462.53;;;-6.24;48.36
42727;BME280;28372;56.832;60.658;2022-11-20T01:54:38;98453.75;;;-6.13;48.69
42727;BME280;28372;56.832;60.658;2022-11-20T01:57:10;98455.97;;;-6.22;48.56
42727;BME280;28372;56.832;60.658;2022-11-20T01:59:44;98442.72;;;-6.32;48.45
42727;BME280;28372;56.832;60.658;2022-11-20T02:02:20;98440.63;;;-6.30;47.52
42727;BME280;28372;56.832;60.658;2022-11-20T02:04:49;98450.94;;;-6.28;47.85
42727;BME280;28372;56.832;60.658;2022-11-20T02:07:19;98439.50;;;-6.34;48.77
42727;BME280;28372;56.832;60.658;2022-11-20T02:09:47;98450.38;;;-6.30;47.56
42727;BME280;28372;56.832;60.658;2022-11-20T02:12:14;98450.59;;;-6.32;48.14
42727;BME280;28372;56.832;60.658;2022-11-20T02:15:20;98449.31;;;-6.29;47.94
42727;BME280;28372;56.832;60.658;2022-11-20T02:17:54;98445.41;;;-6.27;48.30
42727;BME280;28372;56.832;60.658;2022-11-20T02:20:22;98441.44;;;-6.29;47.86
42727;BME280;28372;56.832;60.658;2022-11-20T02:23:11;98450.72;;;-6.22;48.66
42727;BME280;28372;56.832;60.658;2022-11-20T02:25:41;98446.75;;;-6.24;48.17
42727;BME280;28372;56.832;60.658;2022-11-20T02:28:10;98435.66;;;-6.26;49.08
42727;BME280;28372;56.832;60.658;2022-11-20T02:30:38;98437.50;;;-6.27;49.16
42727;BME280;28372;56.832;60.658;2022-11-20T02:33:05;98434.38;;;-6.24;48.76
42727;BME280;28372;56.832;60.658;2022-11-20T02:38:01;98421.34;;;-6.13;48.43
42727;BME280;28372;56.832;60.658;2022-11-20T02:40:29;98415.81;;;-6.12;47.98
42727;BME280;28372;56.832;60.658;2022-11-20T02:42:57;98422.19;;;-6.08;48.37
42727;BME280;28372;56.832;60.658;2022-11-20T02:45:25;98421.69;;;-6.05;47.91
42727;BME280;28372;56.832;60.658;2022-11-20T02:47:52;98422.25;;;-6.03;48.22
42727;BME280;28372;56.832;60.658;2022-11-20T02:50:20;98421.22;;;-6.01;48.37
42727;BME280;28372;56.832;60.658;2022-11-20T02:52:47;98406.72;;;-5.99;48.09
42727;BME280;28372;56.832;60.658;2022-11-20T02:55:15;98422.56;;;-5.94;49.05
42727;BME280;28372;56.832;60.658;2022-11-20T02:57:42;98417.28;;;-5.94;48.72
42727;BME280;28372;56.832;60.658;2022-11-20T03:00:10;98423.16;;;-5.87;48.72
42727;BME280;28372;56.832;60.658;2022-11-20T03:02:38;98420.84;;;-5.83;49.09
42727;BME280;28372;56.832;60.658;2022-11-20T03:05:06;98427.72;;;-5.77;48.51
42727;BME280;28372;56.832;60.658;2022-11-20T03:07:33;98418.78;;;-5.76;48.81
42727;BME280;28372;56.832;60.658;2022-11-20T03:10:03;98418.84;;;-5.71;48.13
42727;BME280;28372;56.832;60.658;2022-11-20T03:12:31;98416.69;;;-5.74;48.03
42727;BME280;28372;56.832;60.658;2022-11-20T03:14:58;98419.94;;;-5.66;49.21
42727;BME280;28372;56.832;60.658;2022-11-20T03:17:26;98420.47;;;-5.64;47.94
42727;BME280;28372;56.832;60.658;2022-11-20T03:19:53;98415.25;;;-5.59;48.02
42727;BME280;28372;56.832;60.658;2022-11-20T03:22:39;98428.81;;;-5.45;49.40
42727;BME280;28372;56.832;60.658;2022-11-20T03:25:17;98431.00;;;-5.37;48.80
42727;BME280;28372;56.832;60.658;2022-11-20T03:28:01;98419.66;;;-5.38;48.14
42727;BME280;28372;56.832;60.658;2022-11-20T03:30:44;98411.75;;;-5.38;48.01
42727;BME280;28372;56.832;60.658;2022-11-20T03:33:27;98410.97;;;-5.33;47.61
42727;BME280;28372;56.832;60.658;2022-11-20T03:36:07;98420.03;;;-5.24;47.14
42727;BME280;28372;56.832;60.658;2022-11-20T03:38:35;98424.78;;;-5.26;46.79
42727;BME280;28372;56.832;60.658;2022-11-20T03:41:05;98418.22;;;-5.18;47.37
42727;BME280;28372;56.832;60.658;2022-11-20T03:43:33;98392.50;;;-5.38;47.82
42727;BME280;28372;56.832;60.658;2022-11-20T03:46:02;98409.00;;;-5.16;48.36
42727;BME280;28372;56.832;60.658;2022-11-20T03:48:34;98387.88;;;-5.21;47.99
42727;BME280;28372;56.832;60.658;2022-11-20T03:53:41;98396.97;;;-5.01;47.32
42727;BME280;28372;56.832;60.658;2022-11-20T03:56:10;98390.19;;;-4.92;48.25
42727;BME280;28372;56.832;60.658;2022-11-20T03:58:40;98384.44;;;-4.78;49.10
42727;BME280;28372;56.832;60.658;2022-11-20T04:01:12;98383.47;;;-4.62;50.31
42727;BME280;28372;56.832;60.658;2022-11-20T04:03:41;98387.22;;;-4.48;49.25
42727;BME280;28372;56.832;60.658;2022-11-20T04:06:13;98382.75;;;-4.42;47.43
42727;BME280;28372;56.832;60.658;2022-11-20T04:08:41;98380.16;;;-4.32;47.05
42727;BME280;28372;56.832;60.658;2022-11-20T04:13:36;98389.44;;;-4.19;46.73
42727;BME280;28372;56.832;60.658;2022-11-20T04:16:05;98386.56;;;-4.12;46.68
42727;BME280;28372;56.832;60.658;2022-11-20T04:18:34;98391.06;;;-4.07;47.18
42727;BME280;28372;56.832;60.658;2022-11-20T04:21:02;98386.56;;;-4.02;46.50
42727;BME280;28372;56.832;60.658;2022-11-20T04:23:30;98385.25;;;-3.99;46.75
42727;BME280;28372;56.832;60.658;2022-11-20T04:26:06;98377.59;;;-3.90;46.97
42727;BME280;28372;56.832;60.658;2022-11-20T04:28:34;98385.81;;;-3.92;46.63
42727;BME280;28372;56.832;60.658;2022-11-20T04:31:10;98387.41;;;-3.81;47.49
42727;BME280;28372;56.832;60.658;2022-11-20T04:33:39;98386.38;;;-3.74;46.36
42727;BME280;28372;56.832;60.658;2022-11-20T04:36:13;98379.25;;;-3.69;46.44
42727;BME280;28372;56.832;60.658;2022-11-20T04:38:41;98373.41;;;-3.76;46.51
42727;BME280;28372;56.832;60.658;2022-11-20T04:41:15;98385.31;;;-3.58;46.88
42727;BME280;28372;56.832;60.658;2022-11-20T04:43:48;98380.56;;;-3.56;46.55
42727;BME280;28372;56.832;60.658;2022-11-20T04:46:17;98383.72;;;-3.49;46.14
42727;BME280;28372;56.832;60.658;2022-11-20T04:48:45;98388.25;;;-3.49;45.07
42727;BME280;28372;56.832;60.658;2022-11-20T04:51:13;98376.59;;;-3.43;45.59
42727;BME280;28372;56.832;60.658;2022-11-20T04:53:41;98375.00;;;-3.39;44.87
42727;BME280;28372;56.832;60.658;2022-11-20T04:56:10;98375.53;;;-3.37;44.04
42727;BME280;28372;56.832;60.658;2022-11-20T04:58:39;98382.94;;;-3.34;45.01
42727;BME280;28372;56.832;60.658;2022-11-20T05:01:18;98379.75;;;-3.51;45.87
42727;BME280;28372;56.832;60.658;2022-11-20T05:03:46;98389.81;;;-3.64;44.23
42727;BME280;28372;56.832;60.658;2022-11-20T05:06:16;98380.53;;;-3.66;45.63
42727;BME280;28372;56.832;60.658;2022-11-20T05:08:44;98383.47;;;-3.63;46.00
42727;BME280;28372;56.832;60.658;2022-11-20T05:11:14;98383.97;;;-3.61;45.80
42727;BME280;28372;56.832;60.658;2022-11-20T05:13:42;98380.84;;;-3.57;45.82
42727;BME280;28372;56.832;60.658;2022-11-20T05:16:11;98370.78;;;-3.50;47.01
42727;BME280;28372;56.832;60.658;2022-11-20T05:18:40;98379.22;;;-3.48;46.82
42727;BME280;28372;56.832;60.658;2022-11-20T05:21:09;98361.53;;;-3.48;46.24
42727;BME280;28372;56.832;60.658;2022-11-20T05:23:37;98370.25;;;-3.42;46.24
42727;BME280;28372;56.832;60.658;2022-11-20T05:26:07;98369.72;;;-3.39;44.89
42727;BME280;28372;56.832;60.658;2022-11-20T05:28:34;98362.84;;;-3.40;43.37
42727;BME280;28372;56.832;60.658;2022-11-20T05:31:13;98370.78;;;-3.30;45.17
42727;BME280;28372;56.832;60.658;2022-11-20T05:33:42;98366.53;;;-3.36;44.94
42727;BME280;28372;56.832;60.658;2022-11-20T05:36:12;98363.09;;;-3.31;45.67
42727;BME280;28372;56.832;60.658;2022-11-20T05:38:41;98366.78;;;-3.22;46.22
42727;BME280;28372;56.832;60.658;2022-11-20T05:41:17;98360.19;;;-3.14;46.67
42727;BME280;28372;56.832;60.658;2022-11-20T05:43:46;98362.56;;;-3.13;47.27
42727;BME280;28372;56.832;60.658;2022-11-20T05:46:18;98362.00;;;-3.10;46.38
42727;BME280;28372;56.832;60.658;2022-11-20T05:48:54;98359.88;;;-3.07;45.29
42727;BME280;28372;56.832;60.658;2022-11-20T05:51:21;98369.94;;;-2.99;46.31
42727;BME280;28372;56.832;60.658;2022-11-20T05:53:49;98356.97;;;-2.96;45.61
42727;BME280;28372;56.832;60.658;2022-11-20T05:56:19;98360.13;;;-2.88;44.83
42727;BME280;28372;56.832;60.658;2022-11-20T05:58:47;98350.56;;;-2.84;45.39
42727;BME280;28372;56.832;60.658;2022-11-20T06:01:21;98357.69;;;-2.74;45.63
42727;BME280;28372;56.832;60.658;2022-11-20T06:03:49;98352.09;;;-2.63;45.94
42727;BME280;28372;56.832;60.658;2022-11-20T06:06:21;98362.41;;;-2.61;45.56
42727;BME280;28372;56.832;60.658;2022-11-20T06:08:49;98348.66;;;-2.58;45.78
42727;BME280;28372;56.832;60.658;2022-11-20T06:11:17;98353.88;;;-2.48;46.10
42727;BME280;28372;56.832;60.658;2022-11-20T06:13:45;98342.47;;;-2.43;45.66
42727;BME280;28372;56.832;60.658;2022-11-20T06:16:15;98350.63;;;-2.29;45.15
42727;BME280;28372;56.832;60.658;2022-11-20T06:18:44;98347.69;;;-2.22;44.80
42727;BME280;28372;56.832;60.658;2022-11-20T06:21:16;98355.56;;;-2.12;44.40
42727;BME280;28372;56.832;60.658;2022-11-20T06:23:44;98360.06;;;-2.08;45.56
42727;BME280;28372;56.832;60.658;2022-11-20T06:26:15;98365.84;;;-2.00;45.13
42727;BME280;28372;56.832;60.658;2022-11-20T06:28:43;98360.00;;;-1.97;45.13
42727;BME280;28372;56.832;60.658;2022-11-20T06:31:13;98360.97;;;-1.88;45.00
42727;BME280;28372;56.832;60.658;2022-11-20T06:33:42;98356.69;;;-1.79;44.60
42727;BME280;28372;56.832;60.658;2022-11-20T06:36:11;98342.09;;;-1.76;44.53
42727;BME280;28372;56.832;60.658;2022-11-20T06:38:40;98343.09;;;-1.67;44.28
42727;BME280;28372;56.832;60.658;2022-11-20T06:41:14;98340.09;;;-1.60;44.26
42727;BME280;28372;56.832;60.658;2022-11-20T06:43:41;98330.97;;;-1.49;44.31
42727;BME280;28372;56.832;60.658;2022-11-20T06:46:10;98335.22;;;-1.48;43.54
42727;BME280;28372;56.832;60.658;2022-11-20T06:48:39;98331.78;;;-1.48;42.32
42727;BME280;28372;56.832;60.658;2022-11-20T06:51:31;98315.06;;;-1.49;42.89
42727;BME280;28372;56.832;60.658;2022-11-20T06:54:05;98287.06;;;-1.60;43.23
42727;BME280;28372;56.832;60.658;2022-11-20T06:56:35;98320.50;;;-1.35;42.73
42727;BME280;28372;56.832;60.658;2022-11-20T06:59:06;98337.63;;;-1.22;43.41
42727;BME280;28372;56.832;60.658;2022-11-20T07:01:34;98331.84;;;-1.24;42.14
42727;BME280;28372;56.832;60.658;2022-11-20T07:04:04;98333.09;;;-1.16;42.85
42727;BME280;28372;56.832;60.658;2022-11-20T07:06:32;98320.63;;;-1.16;43.21
42727;BME280;28372;56.832;60.658;2022-11-20T07:08:59;98323.72;;;-1.09;42.49
42727;BME280;28372;56.832;60.658;2022-11-20T07:11:27;98309.13;;;-1.11;43.22
42727;BME280;28372;56.832;60.658;2022-11-20T07:13:57;98307.50;;;-1.07;43.08
42727;BME280;28372;56.832;60.658;2022-11-20T07:16:24;98328.59;;;-0.92;43.12
42727;BME280;28372;56.832;60.658;2022-11-20T07:18:52;98329.28;;;-0.81;44.13
42727;BME280;28372;56.832;60.658;2022-11-20T07:21:22;98319.94;;;-0.78;43.16
42727;BME280;28372;56.832;60.658;2022-11-20T07:23:50;98310.56;;;-0.71;43.44
42727;BME280;28372;56.832;60.658;2022-11-20T07:26:21;98325.28;;;-0.59;42.33
42727;BME280;28372;56.832;60.658;2022-11-20T07:28:51;98317.03;;;-0.58;42.73
42727;BME280;28372;56.832;60.658;2022-11-20T07:31:22;98311.91;;;-0.49;43.07
42727;BME280;28372;56.832;60.658;2022-11-20T07:33:50;98316.06;;;-0.43;42.25
42727;BME280;28372;56.832;60.658;2022-11-20T07:36:17;98313.34;;;-0.38;41.76
42727;BME280;28372;56.832;60.658;2022-11-20T07:38:45;98307.22;;;-0.38;41.21
42727;BME280;28372;56.832;60.658;2022-11-20T07:41:12;98302.19;;;-0.40;41.03
42727;BME280;28372;56.832;60.658;2022-11-20T07:43:40;98309.31;;;-0.35;41.55
42727;BME280;28372;56.832;60.658;2022-11-20T07:46:07;98307.16;;;-0.33;42.98
42727;BME280;28372;56.832;60.658;2022-11-20T07:48:35;98306.56;;;-0.30;42.45
42727;BME280;28372;56.832;60.658;2022-11-20T07:51:02;98297.25;;;-0.27;41.03
42727;BME280;28372;56.832;60.658;2022-11-20T07:53:30;98305.22;;;-0.27;41.79
42727;BME280;28372;56.832;60.658;2022-11-20T07:56:02;98303.81;;;-0.20;41.40
42727;BME280;28372;56.832;60.658;2022-11-20T07:58:30;98307.22;;;-0.19;41.34
42727;BME280;28372;56.832;60.658;2022-11-20T08:01:04;98309.25;;;-0.11;41.37
42727;BME280;28372;56.832;60.658;2022-11-20T08:03:32;98306.31;;;-0.09;40.37
42727;BME280;28372;56.832;60.658;2022-11-20T08:06:03;98313.41;;;-0.05;41.83
42727;BME280;28372;56.832;60.658;2022-11-20T08:08:32;98309.09;;;-0.01;40.70
42727;BME280;28372;56.832;60.658;2022-11-20T08:11:06;98318.59;;;0.06;42.40
42727;BME280;28372;56.832;60.658;2022-11-20T08:13:52;98309.16;;;0.13;41.16
42727;BME280;28372;56.832;60.658;2022-11-20T08:16:46;98310.56;;;0.25;41.16
42727;BME280;28372;56.832;60.658;2022-11-20T08:19:15;98311.00;;;0.32;40.96
42727;BME280;28372;56.832;60.658;2022-11-20T08:21:43;98308.56;;;0.36;40.65
42727;BME280;28372;56.832;60.658;2022-11-20T08:24:12;98301.88;;;0.38;40.51
42727;BME280;28372;56.832;60.658;2022-11-20T08:26:39;98308.66;;;0.44;40.21
42727;BME280;28372;56.832;60.658;2022-11-20T08:29:07;98310.97;;;0.51;41.27
42727;BME280;28372;56.832;60.658;2022-11-20T08:31:35;98298.44;;;0.51;41.22
42727;BME280;28372;56.832;60.658;2022-11-20T08:34:02;98300.63;;;0.63;40.53
42727;BME280;28372;56.832;60.658;2022-11-20T08:36:35;98304.78;;;0.70;40.00
42727;BME280;28372;56.832;60.658;2022-11-20T08:39:03;98304.41;;;0.76;41.53
42727;BME280;28372;56.832;60.658;2022-11-20T08:41:30;98300.94;;;0.76;39.44
42727;BME280;28372;56.832;60.658;2022-11-20T08:44:27;98285.38;;;0.69;39.46
42727;BME280;28372;56.832;60.658;2022-11-20T08:47:12;98276.78;;;0.72;40.48
42727;BME280;28372;56.832;60.658;2022-11-20T08:50:26;98291.88;;;0.77;39.08
42727;BME280;28372;56.832;60.658;2022-11-20T08:53:15;98263.94;;;0.60;38.71
42727;BME280;28372;56.832;60.658;2022-11-20T08:55:56;98241.34;;;0.44;39.68
42727;BME280;28372;56.832;60.658;2022-11-20T08:58:25;98258.41;;;0.43;39.20
42727;BME280;28372;56.832;60.658;2022-11-20T09:00:53;98273.31;;;0.58;39.13
42727;BME280;28372;56.832;60.658;2022-11-20T09:03:21;98275.56;;;0.50;38.15
42727;BME280;28372;56.832;60.658;2022-11-20T09:05:48;98273.19;;;0.49;39.13
42727;BME280;28372;56.832;60.658;2022-11-20T09:08:16;98276.44;;;0.46;40.19
42727;BME280;28372;56.832;60.658;2022-11-20T09:10:43;98275.75;;;0.40;45.70
42727;BME280;28372;56.832;60.658;2022-11-20T09:13:11;98278.47;;;0.35;42.44
42727;BME280;28372;56.832;60.658;2022-11-20T09:15:38;98267.94;;;0.30;42.61
42727;BME280;28372;56.832;60.658;2022-11-20T09:18:06;98265.63;;;0.23;41.43
42727;BME280;28372;56.832;60.658;2022-11-20T09:20:34;98268.31;;;0.23;41.43
42727;BME280;28372;56.832;60.658;2022-11-20T09:23:31;98274.91;;;0.26;42.25
42727;BME280;28372;56.832;60.658;2022-11-20T09:26:42;98258.00;;;0.36;39.70
42727;BME280;28372;56.832;60.658;2022-11-20T09:33:41;98217.72;;;-0.24;41.29
42727;BME280;28372;56.832;60.658;2022-11-20T09:37:15;98265.53;;;0.14;41.49
42727;BME280;28372;56.832;60.658;2022-11-20T09:39:56;98238.13;;;-0.19;40.71
42727;BME280;28372;56.832;60.658;2022-11-20T09:45:04;98273.75;;;-0.01;40.75
42727;BME280;28372;56.832;60.658;2022-11-20T09:50:39;98259.75;;;-0.07;39.81
42727;BME280;28372;56.832;60.658;2022-11-20T09:55:46;98256.16;;;-0.16;39.59
42727;BME280;28372;56.832;60.658;2022-11-20T09:58:27;98255.19;;;-0.06;40.23
42727;BME280;28372;56.832;60.658;2022-11-20T10:01:10;98250.75;;;-0.11;40.40
42727;BME280;28372;56.832;60.658;2022-11-20T10:06:18;98244.16;;;-0.13;46.02
42727;BME280;28372;56.832;60.658;2022-11-20T10:09:13;98257.38;;;-0.08;43.83
42727;BME280;28372;56.832;60.658;2022-11-20T10:25:42;98250.16;;;-0.08;41.04
42727;BME280;28372;56.832;60.658;2022-11-20T10:31:38;98248.09;;;-0.11;40.84
42727;BME280;28372;56.832;60.658;2022-11-20T10:37:00;98244.56;;;-0.06;41.83
42727;BME280;28372;56.832;60.658;2022-11-20T10:39:44;98253.31;;;-0.06;42.17
42727;BME280;28372;56.832;60.658;2022-11-20T10:42:20;98247.28;;;-0.11;40.87
42727;BME280;28372;56.832;60.658;2022-11-20T10:44:53;98244.16;;;-0.13;41.82
42727;BME280;28372;56.832;60.658;2022-11-20T10:47:32;98250.03;;;-0.16;41.19
42727;BME280;28372;56.832;60.658;2022-11-20T10:50:09;98250.25;;;-0.13;41.56
42727;BME280;28372;56.832;60.658;2022-11-20T10:53:00;98250.53;;;-0.14;42.13
42727;BME280;28372;56.832;60.658;2022-11-20T10:55:48;98250.53;;;-0.14;42.49
42727;BME280;28372;56.832;60.658;2022-11-20T11:01:05;98243.00;;;-0.26;43.81
42727;BME280;28372;56.832;60.658;2022-11-20T11:03:33;98242.00;;;-0.30;43.03
42727;BME280;28372;56.832;60.658;2022-11-20T11:06:12;98250.63;;;-0.20;42.27
42727;BME280;28372;56.832;60.658;2022-11-20T11:08:46;98244.88;;;-0.27;41.93
42727;BME280;28372;56.832;60.658;2022-11-20T11:11:27;98246.97;;;-0.24;41.76
42727;BME280;28372;56.832;60.658;2022-11-20T11:16:34;98243.09;;;-0.31;41.55
42727;BME280;28372;56.832;60.658;2022-11-20T11:19:06;98241.00;;;-0.35;42.36
42727;BME280;28372;56.832;60.658;2022-11-20T11:21:34;98240.00;;;-0.39;42.29
42727;BME280;28372;56.832;60.658;2022-11-20T11:24:05;98238.22;;;-0.43;43.10
42727;BME280;28372;56.832;60.658;2022-11-20T11:26:57;98207.47;;;-0.68;42.18
42727;BME280;28372;56.832;60.658;2022-11-20T11:29:26;98231.00;;;-0.62;42.11
42727;BME280;28372;56.832;60.658;2022-11-20T11:32:17;98214.81;;;-0.60;43.11
42727;BME280;28372;56.832;60.658;2022-11-20T11:35:21;98197.06;;;-0.84;43.10
42727;BME280;28372;56.832;60.658;2022-11-20T11:37:49;98225.97;;;-0.82;41.68
42727;BME280;28372;56.832;60.658;2022-11-20T11:40:18;98228.19;;;-0.90;41.50
42727;BME280;28372;56.832;60.658;2022-11-20T11:42:57;98208.38;;;-0.97;42.87
42727;BME280;28372;56.832;60.658;2022-11-20T11:45:27;98237.81;;;-0.94;42.26
42727;BME280;28372;56.832;60.658;2022-11-20T11:47:58;98242.03;;;-0.93;41.34
42727;BME280;28372;56.832;60.658;2022-11-20T11:50:29;98231.78;;;-0.99;42.42
42727;BME280;28372;56.832;60.658;2022-11-20T11:53:13;98230.91;;;-0.95;44.28
42727;BME280;28372;56.832;60.658;2022-11-20T11:58:51;98229.94;;;-1.04;43.02
42727;BME280;28372;56.832;60.658;2022-11-20T12:04:44;98238.81;;;-1.14;41.61
42727;BME280;28372;56.832;60.658;2022-11-20T12:11:04;98255.38;;;-1.22;42.78
42727;BME280;28372;56.832;60.658;2022-11-20T12:16:17;98247.34;;;-1.41;43.45
42727;BME280;28372;56.832;60.658;2022-11-20T12:18:49;98244.53;;;-1.50;42.19
42727;BME280;28372;56.832;60.658;2022-11-20T12:21:24;98237.19;;;-1.58;41.87
42727;BME280;28372;56.832;60.658;2022-11-20T12:27:12;98231.13;;;-1.64;42.81
42727;BME280;28372;56.832;60.658;2022-11-20T12:30:20;98236.72;;;-1.65;43.36
42727;BME280;28372;56.832;60.658;2022-11-20T12:54:01;98220.00;;;-1.95;44.44
42727;BME280;28372;56.832;60.658;2022-11-20T12:56:57;98189.75;;;-2.24;45.11
42727;BME280;28372;56.832;60.658;2022-11-20T12:59:49;98217.25;;;-2.14;44.69
42727;BME280;28372;56.832;60.658;2022-11-20T13:07:52;98218.13;;;-2.24;44.13
42727;BME280;28372;56.832;60.658;2022-11-20T13:10:35;98207.28;;;-2.28;44.95
42727;BME280;28372;56.832;60.658;2022-11-20T13:13:22;98212.63;;;-2.33;45.47
42727;BME280;28372;56.832;60.658;2022-11-20T13:16:00;98199.13;;;-2.36;45.63
42727;BME280;28372;56.832;60.658;2022-11-20T13:18:37;98200.50;;;-2.44;44.06
42727;BME280;28372;56.832;60.658;2022-11-20T13:21:16;98214.78;;;-2.40;45.08
42727;BME280;28372;56.832;60.658;2022-11-20T13:23:44;98215.91;;;-2.51;44.59
42727;BME280;28372;56.832;60.658;2022-11-20T13:26:22;98213.50;;;-2.48;45.83
42727;BME280;28372;56.832;60.658;2022-11-20T13:29:08;98212.97;;;-2.50;45.16
42727;BME280;28372;56.832;60.658;2022-11-20T13:31:40;98212.75;;;-2.53;44.76
42727;BME280;28372;56.832;60.658;2022-11-20T13:34:35;98202.25;;;-2.64;44.50
42727;BME280;28372;56.832;60.658;2022-11-20T13:37:03;98211.53;;;-2.71;44.65
42727;BME280;28372;56.832;60.658;2022-11-20T13:39:35;98188.09;;;-2.94;44.57
42727;BME280;28372;56.832;60.658;2022-11-20T13:42:23;98209.66;;;-2.66;44.70
42727;BME280;28372;56.832;60.658;2022-11-20T13:44:54;98204.94;;;-2.74;44.92
42727;BME280;28372;56.832;60.658;2022-11-20T13:47:24;98185.41;;;-2.83;43.91
42727;BME280;28372;56.832;60.658;2022-11-20T13:49:53;98206.81;;;-2.80;44.27
42727;BME280;28372;56.832;60.658;2022-11-20T14:01:11;98203.38;;;-2.80;45.27
42727;BME280;28372;56.832;60.658;2022-11-20T14:03:42;98208.75;;;-2.96;44.71
42727;BME280;28372;56.832;60.658;2022-11-20T14:06:41;98188.63;;;-2.97;46.29
42727;BME280;28372;56.832;60.658;2022-11-20T14:09:36;98192.59;;;-2.94;44.75
42727;BME280;28372;56.832;60.658;2022-11-20T14:12:03;98196.06;;;-2.99;44.86
42727;BME280;28372;56.832;60.658;2022-11-20T14:14:33;98186.00;;;-3.02;44.24
42727;BME280;28372;56.832;60.658;2022-11-20T14:17:15;98187.09;;;-3.08;44.41
42727;BME280;28372;56.832;60.658;2022-11-20T14:19:45;98200.06;;;-3.06;44.58
42727;BME280;28372;56.832;60.658;2022-11-20T14:24:48;98195.34;;;-3.15;44.80
42727;BME280;28372;56.832;60.658;2022-11-20T14:27:20;98183.97;;;-3.20;45.52
42727;BME280;28372;56.832;60.658;2022-11-20T14:29:50;98198.31;;;-3.32;43.22
42727;BME280;28372;56.832;60.658;2022-11-20T14:32:19;98192.50;;;-3.34;43.90
42727;BME280;28372;56.832;60.658;2022-11-20T14:34:50;98194.06;;;-3.33;45.03
42727;BME280;28372;56.832;60.658;2022-11-20T14:37:32;98198.84;;;-3.30;46.06
42727;BME280;28372;56.832;60.658;2022-11-20T14:40:00;98196.22;;;-3.35;45.50
42727;BME280;28372;56.832;60.658;2022-11-20T14:42:29;98187.22;;;-3.39;45.69
42727;BME280;28372;56.832;60.658;2022-11-20T14:44:59;98190.38;;;-3.37;45.76
42727;BME280;28372;56.832;60.658;2022-11-20T14:47:30;98187.50;;;-3.40;45.97
42727;BME280;28372;56.832;60.658;2022-11-20T14:50:00;98202.00;;;-3.33;46.30
42727;BME280;28372;56.832;60.658;2022-11-20T14:52:36;98188.00;;;-3.33;45.48
42727;BME280;28372;56.832;60.658;2022-11-20T14:55:04;98187.72;;;-3.32;46.37
42727;BME280;28372;56.832;60.658;2022-11-20T14:57:35;98197.50;;;-3.27;45.62
42727;BME280;28372;56.832;60.658;2022-11-20T15:02:43;98193.78;;;-3.26;45.01
42727;BME280;28372;56.832;60.658;2022-11-20T15:05:14;98182.44;;;-3.32;45.53
42727;BME280;28372;56.832;60.658;2022-11-20T15:07:46;98181.66;;;-3.32;44.97
42727;BME280;28372;56.832;60.658;2022-11-20T15:10:25;98175.53;;;-3.22;45.54